Time;durP1;ratioP1;P1;durP2;ratioP2;P2;SDS_P1;SDS_P2;PMS_P1;PMS_P2;Temp;Humidity;BMP_temperature;BMP_pressure;BME280_temperature;BME280_humidity;BME280_pressure;Samples;Min_cycle;Max_cycle;Signal;HPM_P1;HPM_P2
2022/06/27 00:01:01;;;;;;;13.80;5.60;;;18.20;99.90;;;;;;5047038;28;20762;-65
2022/06/27 00:03:28;;;;;;;7.60;5.03;;;18.10;99.90;;;;;;5034490;28;20222;-65
2022/06/27 00:05:55;;;;;;;9.27;5.47;;;17.90;99.90;;;;;;5050251;28;20628;-65
2022/06/27 00:08:22;;;;;;;6.80;4.93;;;17.90;99.90;;;;;;5044333;28;20282;-65
2022/06/27 00:10:49;;;;;;;6.43;5.00;;;17.90;99.90;;;;;;5031045;28;20196;-65
2022/06/27 00:13:16;;;;;;;6.30;5.43;;;17.90;99.90;;;;;;5031344;28;20222;-65
2022/06/27 00:15:42;;;;;;;6.67;5.97;;;18.00;99.90;;;;;;5030914;28;20234;-66
2022/06/27 00:18:09;;;;;;;8.10;5.10;;;18.00;99.90;;;;;;5031664;28;20191;-66
2022/06/27 00:20:36;;;;;;;8.73;5.37;;;18.00;99.90;;;;;;5031804;28;20662;-66
2022/06/27 00:23:02;;;;;;;6.43;5.77;;;18.00;99.90;;;;;;5031113;28;20223;-65
2022/06/27 00:25:29;;;;;;;8.07;5.73;;;18.00;99.90;;;;;;5039401;28;20223;-65
2022/06/27 00:27:56;;;;;;;8.13;5.93;;;18.10;99.90;;;;;;5031462;28;20203;-65
2022/06/27 00:30:22;;;;;;;7.87;6.33;;;18.20;99.90;;;;;;5031203;28;20201;-66
2022/06/27 00:32:49;;;;;;;8.10;6.47;;;18.10;99.90;;;;;;5031430;28;20218;-66
2022/06/27 00:35:15;;;;;;;8.20;6.80;;;18.10;99.90;;;;;;5031077;28;20215;-66
2022/06/27 00:37:42;;;;;;;8.10;5.83;;;18.20;99.90;;;;;;5031001;28;20210;-66
2022/06/27 00:40:09;;;;;;;7.83;5.90;;;18.20;99.90;;;;;;5036369;28;20196;-66
2022/06/27 00:42:36;;;;;;;10.13;5.60;;;18.30;99.90;;;;;;5030357;28;20235;-66
2022/06/27 00:45:05;;;;;;;7.53;6.10;;;18.30;99.90;;;;;;5030759;28;20646;-66
2022/06/27 00:47:32;;;;;;;8.23;6.07;;;18.30;99.90;;;;;;5030787;28;20205;-66
2022/06/27 00:49:59;;;;;;;7.27;6.13;;;18.40;99.90;;;;;;5030510;28;20191;-66
2022/06/27 00:52:27;;;;;;;11.97;6.63;;;18.40;99.90;;;;;;5030374;28;20386;-66
2022/06/27 00:54:53;;;;;;;10.40;7.17;;;18.50;99.90;;;;;;5036825;28;20570;-66
2022/06/27 00:57:20;;;;;;;11.70;8.03;;;18.50;99.90;;;;;;5030689;28;20188;-65
2022/06/27 00:59:47;;;;;;;12.50;9.00;;;18.60;99.90;;;;;;5030007;28;20269;-65
2022/06/27 01:02:14;;;;;;;10.60;8.13;;;18.70;99.90;;;;;;5030061;28;20287;-65
2022/06/27 01:04:40;;;;;;;9.80;7.80;;;18.60;99.90;;;;;;5029846;28;20223;-65
2022/06/27 01:07:09;;;;;;;13.70;8.57;;;18.60;99.90;;;;;;5036829;28;20195;-65
2022/06/27 01:09:41;;;;;;;10.23;7.90;;;18.60;99.90;;;;;;5029439;28;20197;-65
2022/06/27 01:12:08;;;;;;;10.97;7.60;;;18.60;99.90;;;;;;5030148;28;20554;-65
2022/06/27 01:14:35;;;;;;;13.27;8.67;;;18.70;99.90;;;;;;5029720;28;20254;-65
2022/06/27 01:17:03;;;;;;;12.70;7.93;;;18.70;99.90;;;;;;5038378;28;20196;-65
2022/06/27 01:19:29;;;;;;;11.20;8.27;;;18.70;99.90;;;;;;5029781;28;20226;-65
2022/06/27 01:21:57;;;;;;;11.17;7.53;;;18.70;99.90;;;;;;5029234;28;20211;-65
2022/06/27 01:24:26;;;;;;;10.27;7.30;;;18.60;99.90;;;;;;5037372;28;20232;-65
2022/06/27 01:26:53;;;;;;;12.93;8.50;;;18.70;99.90;;;;;;5029655;28;20199;-65
2022/06/27 01:29:20;;;;;;;14.97;7.33;;;18.70;99.90;;;;;;5037618;28;20200;-65
2022/06/27 01:31:48;;;;;;;13.13;8.40;;;18.70;99.90;;;;;;5030691;28;20199;-65
2022/06/27 01:34:15;;;;;;;12.40;7.90;;;18.80;99.90;;;;;;5029269;28;20273;-65
2022/06/27 01:36:42;;;;;;;12.27;8.37;;;18.70;99.90;;;;;;5028734;28;20725;-65
2022/06/27 01:39:18;;;;;;;10.27;8.10;;;18.70;99.90;;;;;;5028908;28;20282;-65
2022/06/27 01:41:51;;;;;;;11.27;7.90;;;18.80;99.90;;;;;;5038079;28;20583;-65
2022/06/27 01:44:19;;;;;;;10.73;7.80;;;18.80;99.90;;;;;;5046255;28;20222;-65
2022/06/27 01:46:48;;;;;;;11.93;7.67;;;18.80;99.90;;;;;;5040263;28;20450;-65
2022/06/27 01:49:16;;;;;;;11.90;7.70;;;18.80;99.90;;;;;;5047603;28;20208;-65
2022/06/27 01:51:50;;;;;;;10.63;8.20;;;18.80;99.90;;;;;;5037125;28;20196;-65
2022/06/27 01:54:19;;;;;;;15.33;8.47;;;18.70;99.90;;;;;;5048241;28;20218;-66
2022/06/27 01:56:47;;;;;;;12.87;7.40;;;18.60;99.90;;;;;;5040836;28;20199;-66
2022/06/27 01:59:15;;;;;;;11.73;8.07;;;18.60;99.90;;;;;;5045119;28;20204;-66
2022/06/27 02:01:42;;;;;;;10.00;7.33;;;18.50;99.90;;;;;;5047819;28;20202;-66
2022/06/27 02:04:11;;;;;;;11.73;7.53;;;18.50;99.90;;;;;;5048330;28;20222;-66
2022/06/27 02:06:39;;;;;;;11.70;8.37;;;18.40;99.90;;;;;;5046553;28;20198;-66
2022/06/27 02:09:09;;;;;;;9.83;7.90;;;18.30;99.90;;;;;;5039306;28;20703;-66
2022/06/27 02:11:36;;;;;;;10.33;7.50;;;18.30;99.90;;;;;;5044435;28;20190;-66
2022/06/27 02:14:03;;;;;;;10.47;7.83;;;18.30;99.90;;;;;;5037585;28;20197;-66
2022/06/27 02:16:30;;;;;;;10.90;7.50;;;18.20;99.90;;;;;;5042922;28;20237;-66
2022/06/27 02:18:57;;;;;;;12.23;8.03;;;18.20;99.90;;;;;;5047599;28;20202;-66
2022/06/27 02:21:26;;;;;;;13.83;8.47;;;18.20;99.90;;;;;;5047774;28;20198;-66
2022/06/27 02:23:54;;;;;;;9.87;7.60;;;18.20;99.90;;;;;;5045579;28;20214;-66
2022/06/27 02:26:26;;;;;;;12.33;8.50;;;18.20;99.90;;;;;;5040040;28;20219;-66
2022/06/27 02:28:54;;;;;;;12.23;8.67;;;18.20;99.90;;;;;;5046693;28;20206;-66
2022/06/27 02:31:21;;;;;;;12.27;8.70;;;18.20;99.90;;;;;;5047474;28;20195;-66
2022/06/27 02:33:49;;;;;;;14.57;9.47;;;18.20;99.90;;;;;;5038856;28;20199;-66
2022/06/27 02:36:29;;;;;;;14.03;9.00;;;18.20;99.90;;;;;;5047366;28;20218;-66
2022/06/27 02:38:58;;;;;;;14.37;8.97;;;18.10;99.90;;;;;;5046721;28;20673;-66
2022/06/27 02:41:28;;;;;;;10.40;8.00;;;18.10;99.90;;;;;;5047166;28;20203;-66
2022/06/27 02:44:04;;;;;;;12.53;9.43;;;18.10;99.90;;;;;;5037391;28;20930;-66
2022/06/27 02:46:32;;;;;;;14.50;8.33;;;18.10;99.90;;;;;;5047411;28;20323;-66
2022/06/27 02:49:00;;;;;;;14.77;10.40;;;18.10;99.90;;;;;;5043869;28;20721;-66
2022/06/27 02:51:31;;;;;;;14.47;10.30;;;18.10;99.90;;;;;;5037017;28;20199;-66
2022/06/27 02:54:11;;;;;;;16.97;10.57;;;18.20;99.90;;;;;;5045471;28;20630;-66
2022/06/27 02:56:52;;;;;;;14.77;11.57;;;18.20;99.90;;;;;;5047009;28;20207;-66
2022/06/27 02:59:23;;;;;;;14.93;10.17;;;18.40;99.90;;;;;;5034773;28;20191;-66
2022/06/27 03:01:52;;;;;;;19.67;10.33;;;18.40;99.90;;;;;;5047823;28;20206;-66
2022/06/27 03:04:19;;;;;;;17.33;11.67;;;18.30;99.90;;;;;;5050781;28;20218;-66
2022/06/27 03:06:46;;;;;;;15.63;10.83;;;18.30;99.90;;;;;;5049958;28;20203;-66
2022/06/27 03:09:13;;;;;;;18.40;12.50;;;18.40;99.90;;;;;;5045639;28;20190;-66
2022/06/27 03:11:40;;;;;;;17.77;12.07;;;18.30;99.90;;;;;;5046643;28;20638;-66
2022/06/27 03:14:07;;;;;;;16.23;12.23;;;18.40;99.90;;;;;;5042937;28;20214;-66
2022/06/27 03:16:34;;;;;;;18.70;12.37;;;18.40;99.90;;;;;;5044539;28;20298;-66
2022/06/27 03:19:03;;;;;;;21.00;13.47;;;18.40;99.90;;;;;;5048758;28;20657;-66
2022/06/27 03:21:30;;;;;;;18.30;12.47;;;18.50;99.90;;;;;;5050007;28;20556;-66
2022/06/27 03:23:57;;;;;;;19.50;12.20;;;18.50;99.90;;;;;;5048417;28;20218;-66
2022/06/27 03:26:24;;;;;;;17.83;12.10;;;18.50;99.90;;;;;;5048435;28;20187;-66
2022/06/27 03:28:50;;;;;;;19.33;12.67;;;18.50;99.90;;;;;;5045483;28;20191;-66
2022/06/27 03:31:17;;;;;;;14.27;11.10;;;18.50;99.90;;;;;;5045979;28;20680;-66
2022/06/27 03:33:44;;;;;;;18.97;11.90;;;18.60;99.90;;;;;;5047223;28;20203;-66
2022/06/27 03:36:11;;;;;;;20.60;13.33;;;18.50;99.90;;;;;;5049402;28;20215;-66
2022/06/27 03:38:37;;;;;;;16.70;12.50;;;18.60;99.90;;;;;;5047842;28;20399;-66
2022/06/27 03:41:04;;;;;;;16.73;11.97;;;18.70;99.90;;;;;;5048652;28;20222;-67
2022/06/27 03:43:31;;;;;;;16.67;11.30;;;18.70;99.90;;;;;;5040907;28;20230;-66
2022/06/27 03:45:58;;;;;;;17.17;12.23;;;18.60;99.90;;;;;;5047370;28;20744;-66
2022/06/27 03:51:10;;;;;;;14.70;11.37;;;18.50;99.90;;;;;;5047928;28;20187;-67
2022/06/27 03:53:38;;;;;;;16.63;12.00;;;18.50;99.90;;;;;;5038138;28;20695;-66
2022/06/27 03:56:05;;;;;;;18.80;11.77;;;18.50;99.90;;;;;;5047159;28;20473;-66
2022/06/27 03:58:31;;;;;;;18.63;12.53;;;18.50;99.90;;;;;;5042050;28;20203;-66
2022/06/27 04:00:58;;;;;;;20.77;12.00;;;18.60;99.90;;;;;;5047333;28;20234;-66
2022/06/27 04:03:25;;;;;;;17.30;12.30;;;18.50;99.90;;;;;;5049349;28;20222;-65
2022/06/27 04:05:51;;;;;;;15.47;9.97;;;18.50;99.90;;;;;;5041409;28;20222;-66
2022/06/27 04:08:18;;;;;;;16.23;9.90;;;18.50;99.90;;;;;;5048217;28;20235;-66
2022/06/27 04:10:45;;;;;;;17.07;10.73;;;18.40;99.90;;;;;;5041425;28;20191;-66
2022/06/27 04:13:11;;;;;;;15.67;11.00;;;18.50;99.90;;;;;;5047314;28;20195;-66
2022/06/27 04:15:39;;;;;;;21.20;11.40;;;18.50;99.90;;;;;;5048003;28;20223;-65
2022/06/27 04:18:05;;;;;;;15.70;10.53;;;18.40;99.90;;;;;;5047993;28;20197;-65
2022/06/27 04:20:32;;;;;;;13.73;9.70;;;18.40;99.90;;;;;;5041382;28;20199;-65
2022/06/27 04:22:59;;;;;;;14.93;10.17;;;18.40;99.90;;;;;;5045262;28;20540;-65
2022/06/27 04:25:26;;;;;;;14.23;9.93;;;18.50;99.90;;;;;;5047428;28;20218;-66
2022/06/27 04:27:52;;;;;;;16.00;11.73;;;18.50;99.90;;;;;;5045182;28;20202;-66
2022/06/27 04:30:19;;;;;;;19.43;12.00;;;18.50;99.90;;;;;;5047757;28;20186;-66
2022/06/27 04:32:48;;;;;;;15.57;11.67;;;18.60;99.90;;;;;;5044909;28;20210;-66
2022/06/27 04:35:15;;;;;;;17.17;11.03;;;18.60;99.90;;;;;;5046206;28;20715;-67
2022/06/27 04:37:43;;;;;;;16.00;10.73;;;18.60;99.90;;;;;;5046267;28;20225;-66
2022/06/27 04:40:12;;;;;;;16.07;11.13;;;18.60;99.90;;;;;;5046967;28;20584;-66
2022/06/27 04:42:40;;;;;;;14.13;10.30;;;18.60;99.90;;;;;;5040531;28;20198;-67
2022/06/27 04:45:09;;;;;;;12.23;8.90;;;18.70;99.90;;;;;;5046629;28;20231;-67
2022/06/27 04:47:38;;;;;;;17.27;10.40;;;18.80;99.90;;;;;;5047695;28;20201;-67
2022/06/27 04:50:08;;;;;;;11.37;9.13;;;18.80;99.90;;;;;;5051250;28;20187;-67
2022/06/27 04:52:35;;;;;;;15.40;10.83;;;18.90;99.90;;;;;;5043643;28;20206;-67
2022/06/27 04:55:02;;;;;;;15.23;11.30;;;19.00;99.90;;;;;;5046090;28;20219;-67
2022/06/27 04:57:28;;;;;;;15.37;10.07;;;19.10;99.90;;;;;;5045595;28;20275;-67
2022/06/27 04:59:55;;;;;;;16.03;10.30;;;19.20;99.90;;;;;;5047062;28;20229;-67
2022/06/27 05:02:22;;;;;;;15.17;10.07;;;19.30;99.90;;;;;;5044990;28;20195;-67
2022/06/27 05:04:49;;;;;;;12.97;10.17;;;19.40;99.90;;;;;;5045151;28;20230;-68
2022/06/27 05:07:15;;;;;;;16.90;11.20;;;19.50;99.90;;;;;;5046659;28;20199;-67
2022/06/27 05:09:43;;;;;;;14.37;10.57;;;19.60;99.90;;;;;;5040182;28;20195;-68
2022/06/27 05:12:09;;;;;;;13.27;9.87;;;19.70;99.90;;;;;;5043141;28;20202;-67
2022/06/27 05:14:36;;;;;;;16.97;9.73;;;19.80;99.90;;;;;;5046101;28;20231;-66
2022/06/27 05:17:04;;;;;;;13.40;10.20;;;19.70;99.90;;;;;;5044981;28;20196;-66
2022/06/27 05:19:32;;;;;;;15.03;9.43;;;19.90;99.90;;;;;;5045063;28;20199;-67
2022/06/27 05:21:59;;;;;;;13.27;9.00;;;20.00;99.90;;;;;;5037423;28;20207;-67
2022/06/27 05:24:25;;;;;;;10.88;7.90;;;20.20;99.90;;;;;;5045877;28;20236;-67
2022/06/27 05:26:53;;;;;;;9.75;7.90;;;20.30;99.90;;;;;;5042013;28;20571;-67
2022/06/27 05:29:21;;;;;;;10.82;8.45;;;20.60;99.90;;;;;;5045592;28;20191;-67
2022/06/27 05:31:47;;;;;;;10.77;8.40;;;20.70;99.90;;;;;;5042322;28;20206;-67
2022/06/27 05:34:14;;;;;;;10.05;8.27;;;20.80;99.90;;;;;;5039075;28;20250;-67
2022/06/27 05:36:41;;;;;;;9.23;7.10;;;21.10;99.90;;;;;;5044785;28;20729;-67
2022/06/27 05:39:08;;;;;;;12.20;7.80;;;21.20;99.90;;;;;;5039303;28;20199;-67
2022/06/27 05:41:35;;;;;;;11.27;6.93;;;21.10;99.90;;;;;;5041445;28;20206;-67
2022/06/27 05:44:03;;;;;;;9.63;6.88;;;21.30;99.90;;;;;;5044928;28;20219;-67
2022/06/27 05:46:29;;;;;;;9.27;7.38;;;21.30;99.90;;;;;;5047297;28;20191;-67
2022/06/27 05:48:57;;;;;;;7.70;6.90;;;21.40;99.90;;;;;;5045351;28;20235;-67
2022/06/27 05:51:24;;;;;;;7.88;6.40;;;21.30;99.90;;;;;;5045606;28;20661;-67
2022/06/27 05:53:51;;;;;;;8.15;7.20;;;21.50;99.90;;;;;;5043586;28;20203;-67
2022/06/27 05:56:18;;;;;;;8.38;6.47;;;21.70;99.90;;;;;;5044456;28;20581;-67
2022/06/27 05:58:46;;;;;;;8.35;6.18;;;21.90;99.90;;;;;;5042237;28;20245;-67
2022/06/27 06:01:12;;;;;;;8.32;6.15;;;22.10;99.90;;;;;;5044093;28;20195;-67
2022/06/27 06:03:39;;;;;;;12.85;5.70;;;21.70;99.90;;;;;;5044138;28;20561;-67
2022/06/27 06:06:07;;;;;;;9.88;5.45;;;21.70;99.90;;;;;;5044597;28;20300;-67
2022/06/27 06:08:36;;;;;;;10.35;6.20;;;22.00;99.90;;;;;;5045213;28;20197;-67
2022/06/27 06:11:03;;;;;;;9.95;6.28;;;22.00;99.90;;;;;;5043563;28;20423;-67
2022/06/27 06:13:30;;;;;;;9.75;5.55;;;21.90;99.90;;;;;;5037892;28;20195;-67
2022/06/27 06:15:57;;;;;;;11.55;5.78;;;21.80;99.90;;;;;;5041736;28;20262;-67
2022/06/27 06:18:24;;;;;;;7.53;4.93;;;21.70;99.90;;;;;;5042265;28;20553;-67
2022/06/27 06:20:51;;;;;;;10.25;5.25;;;21.70;99.90;;;;;;5040981;28;20217;-67
2022/06/27 06:23:17;;;;;;;9.30;5.85;;;21.80;99.90;;;;;;5042539;28;20202;-67
2022/06/27 06:25:45;;;;;;;8.82;5.63;;;22.00;99.90;;;;;;5045032;28;20229;-67
2022/06/27 06:28:11;;;;;;;6.78;5.05;;;22.10;99.90;;;;;;5044113;28;21444;-67
2022/06/27 06:30:38;;;;;;;6.88;4.95;;;21.90;99.90;;;;;;5045981;28;20195;-67
2022/06/27 06:33:05;;;;;;;7.38;4.97;;;22.00;99.90;;;;;;5043710;28;20565;-67
2022/06/27 06:35:33;;;;;;;6.55;4.97;;;22.00;99.90;;;;;;5038305;28;20681;-67
2022/06/27 06:38:01;;;;;;;6.22;4.50;;;22.10;99.90;;;;;;5044336;28;20685;-67
2022/06/27 06:40:29;;;;;;;5.80;4.40;;;22.10;99.90;;;;;;5050034;28;20205;-67
2022/06/27 06:42:59;;;;;;;6.05;4.18;;;22.00;99.90;;;;;;5044878;28;20204;-67
2022/06/27 06:45:26;;;;;;;4.47;3.67;;;21.90;99.90;;;;;;5046227;28;20229;-67
2022/06/27 06:47:52;;;;;;;4.15;3.60;;;21.90;99.90;;;;;;5038377;28;20218;-67
2022/06/27 06:50:19;;;;;;;4.22;3.33;;;21.80;99.90;;;;;;5041518;28;20191;-67
2022/06/27 06:52:50;;;;;;;7.03;4.00;;;21.80;99.90;;;;;;5039501;28;20196;-67
2022/06/27 06:55:20;;;;;;;5.63;3.60;;;21.80;99.90;;;;;;5043775;28;20692;-67
2022/06/27 06:57:46;;;;;;;3.83;3.40;;;21.70;99.90;;;;;;5048392;28;20276;-67
2022/06/27 07:00:14;;;;;;;4.15;3.30;;;21.70;99.90;;;;;;5045992;28;20213;-67
2022/06/27 07:02:48;;;;;;;3.70;3.40;;;21.60;99.90;;;;;;5043489;28;20199;-67
2022/06/27 07:05:16;;;;;;;5.47;3.33;;;21.70;99.90;;;;;;5039782;28;20744;-67
2022/06/27 07:07:43;;;;;;;3.58;3.22;;;21.90;99.90;;;;;;5044360;28;20194;-67
2022/06/27 07:10:14;;;;;;;4.95;3.38;;;22.00;99.90;;;;;;5047484;28;20906;-67
2022/06/27 07:12:42;;;;;;;5.95;3.55;;;22.00;99.90;;;;;;5043065;28;20200;-67
2022/06/27 07:15:10;;;;;;;4.00;3.10;;;21.80;99.90;;;;;;5044725;28;20223;-67
2022/06/27 07:17:45;;;;;;;3.60;2.95;;;21.60;99.90;;;;;;5046188;28;20230;-67
2022/06/27 07:20:13;;;;;;;5.97;4.35;;;21.60;99.90;;;;;;5045057;28;20209;-67
2022/06/27 07:22:42;;;;;;;5.20;2.92;;;21.60;99.90;;;;;;5043326;28;20708;-67
2022/06/27 07:25:09;;;;;;;3.70;3.22;;;21.60;99.90;;;;;;5044340;28;20223;-67
2022/06/27 07:27:36;;;;;;;4.30;3.30;;;21.90;99.90;;;;;;5046210;28;20282;-67
2022/06/27 07:30:04;;;;;;;6.28;3.20;;;22.10;99.90;;;;;;5043807;28;20249;-67
2022/06/27 07:32:31;;;;;;;4.35;3.38;;;22.40;99.90;;;;;;5042529;28;20205;-67
2022/06/27 07:34:59;;;;;;;3.90;2.85;;;22.80;99.90;;;;;;5045204;28;20230;-68
2022/06/27 07:37:25;;;;;;;5.95;3.00;;;23.50;99.90;;;;;;5045835;28;20753;-68
2022/06/27 07:39:53;;;;;;;4.45;2.58;;;24.10;99.90;;;;;;5041325;28;20195;-68
2022/06/27 07:42:20;;;;;;;6.25;3.10;;;24.50;99.90;;;;;;5046667;28;20191;-68
2022/06/27 07:44:48;;;;;;;4.78;3.03;;;24.60;99.90;;;;;;5043392;28;20229;-68
2022/06/27 07:47:14;;;;;;;3.28;2.70;;;25.10;99.90;;;;;;5040723;28;20196;-68
2022/06/27 07:49:41;;;;;;;6.95;2.70;;;25.20;99.90;;;;;;5043099;28;20199;-68
2022/06/27 07:52:08;;;;;;;3.65;2.75;;;25.10;99.90;;;;;;5043617;28;20198;-68
2022/06/27 07:54:34;;;;;;;2.90;2.45;;;25.40;99.90;;;;;;5044070;28;20230;-68
2022/06/27 07:57:02;;;;;;;4.63;2.58;;;25.90;99.90;;;;;;5042454;28;20195;-68
2022/06/27 07:59:29;;;;;;;4.97;2.50;;;26.40;99.90;;;;;;5047026;28;20606;-67
2022/06/27 08:01:56;;;;;;;5.30;2.60;;;26.20;99.90;;;;;;5041103;28;20208;-68
2022/06/27 08:04:23;;;;;;;4.88;2.25;;;25.50;99.90;;;;;;5038410;28;20223;-68
2022/06/27 08:06:52;;;;;;;4.03;2.20;;;25.30;99.90;;;;;;5038630;28;20227;-67
2022/06/27 08:09:20;;;;;;;5.03;2.22;;;25.30;99.90;;;;;;5043284;28;20198;-68
2022/06/27 08:11:47;;;;;;;2.25;2.00;;;25.60;99.90;;;;;;5041784;28;20203;-68
2022/06/27 08:14:18;;;;;;;3.28;2.85;;;25.70;99.90;;;;;;5041851;28;20192;-69
2022/06/27 08:16:49;;;;;;;3.85;2.65;;;25.80;99.90;;;;;;5045796;28;20240;-69
2022/06/27 08:19:18;;;;;;;4.13;2.38;;;25.80;99.90;;;;;;5043830;28;20195;-69
2022/06/27 08:21:45;;;;;;;4.18;2.40;;;25.70;99.90;;;;;;5043997;28;20199;-69
2022/06/27 08:24:16;;;;;;;5.10;2.40;;;25.60;99.90;;;;;;5042537;28;20219;-68
2022/06/27 08:26:44;;;;;;;2.72;2.40;;;25.50;99.90;;;;;;5043151;28;20245;-68
2022/06/27 08:29:12;;;;;;;3.75;2.25;;;25.40;99.90;;;;;;5042383;28;20207;-68
2022/06/27 08:31:39;;;;;;;2.70;2.22;;;25.40;99.90;;;;;;5038601;28;20199;-68
2022/06/27 08:34:06;;;;;;;2.47;2.10;;;25.30;99.90;;;;;;5041470;28;20203;-68
2022/06/27 08:36:35;;;;;;;4.47;2.45;;;25.70;99.90;;;;;;5047075;28;20206;-68
2022/06/27 08:39:16;;;;;;;5.20;2.30;;;26.00;99.90;;;;;;5042548;28;20206;-68
2022/06/27 08:41:47;;;;;;;2.65;2.30;;;26.30;99.90;;;;;;5039554;28;20465;-69
2022/06/27 08:44:15;;;;;;;3.03;1.90;;;26.60;99.90;;;;;;5042180;28;20207;-69
2022/06/27 08:46:46;;;;;;;2.00;1.80;;;26.70;99.90;;;;;;5042018;28;20218;-69
2022/06/27 08:49:14;;;;;;;2.90;2.38;;;26.60;99.90;;;;;;5042044;28;20230;-68
2022/06/27 08:51:45;;;;;;;4.07;2.20;;;26.60;99.90;;;;;;5045175;28;20224;-68
2022/06/27 08:54:11;;;;;;;2.88;2.53;;;26.60;99.90;;;;;;5040764;28;20194;-68
2022/06/27 08:56:39;;;;;;;9.18;2.50;;;26.70;99.90;;;;;;5037879;28;20199;-68
2022/06/27 08:59:06;;;;;;;2.47;2.17;;;26.90;99.90;;;;;;5039845;28;20585;-69
2022/06/27 09:01:32;;;;;;;2.70;2.28;;;27.30;99.90;;;;;;5046072;28;20205;-69
2022/06/27 09:04:02;;;;;;;3.30;2.13;;;27.60;99.90;;;;;;5039148;28;20195;-69
2022/06/27 09:06:55;;;;;;;4.68;2.28;;;27.40;99.90;;;;;;5035464;28;20255;-69
2022/06/27 09:09:24;;;;;;;2.58;2.10;;;27.40;99.90;;;;;;5039232;28;20195;-68
2022/06/27 09:11:51;;;;;;;2.92;2.40;;;27.60;99.90;;;;;;5036073;28;20195;-68
2022/06/27 09:14:42;;;;;;;2.95;1.90;;;27.50;99.90;;;;;;5033340;28;20218;-69
2022/06/27 09:17:14;;;;;;;3.85;2.08;;;27.70;99.90;;;;;;5040605;28;20210;-68
2022/06/27 09:19:54;;;;;;;4.20;2.15;;;27.90;99.90;;;;;;5037325;28;20198;-69
2022/06/27 09:22:26;;;;;;;2.58;2.17;;;27.90;99.90;;;;;;5044373;28;20201;-67
2022/06/27 09:25:01;;;;;;;2.70;2.17;;;28.30;99.90;;;;;;5037284;28;20234;-67
2022/06/27 09:27:55;;;;;;;5.55;2.15;;;28.50;99.90;;;;;;5041268;28;20206;-67
2022/06/27 09:30:23;;;;;;;3.85;2.08;;;28.60;99.90;;;;;;5038214;28;20375;-67
2022/06/27 09:32:58;;;;;;;5.22;2.30;;;28.70;99.90;;;;;;5039042;28;20199;-68
2022/06/27 09:35:33;;;;;;;3.35;2.30;;;29.00;99.90;;;;;;5040814;28;20218;-67
2022/06/27 09:38:07;;;;;;;4.00;2.25;;;29.30;99.90;;;;;;5037616;28;20218;-67
2022/06/27 09:40:36;;;;;;;3.08;2.00;;;29.40;99.90;;;;;;5037933;28;20370;-67
2022/06/27 09:43:07;;;;;;;3.05;1.92;;;29.70;99.90;;;;;;5037828;28;20196;-68
2022/06/27 09:45:34;;;;;;;2.35;1.65;;;29.90;99.90;;;;;;5041151;28;20218;-67
2022/06/27 09:48:05;;;;;;;2.20;2.00;;;30.30;99.90;;;;;;5033470;28;20616;-67
2022/06/27 09:50:36;;;;;;;2.20;1.85;;;30.40;99.90;;;;;;5040109;28;20568;-68
2022/06/27 09:53:03;;;;;;;2.75;1.98;;;30.20;99.90;;;;;;5041214;28;20202;-68
2022/06/27 09:55:30;;;;;;;2.15;1.95;;;30.20;99.90;;;;;;5040976;28;20219;-67
2022/06/27 09:57:58;;;;;;;2.55;1.70;;;29.70;99.90;;;;;;5029068;28;20206;-67
2022/06/27 10:00:25;;;;;;;4.07;2.35;;;29.60;99.90;;;;;;5036170;28;20195;-67
2022/06/27 10:02:53;;;;;;;2.15;1.95;;;29.40;99.90;;;;;;5036403;28;20196;-67
2022/06/27 10:05:20;;;;;;;2.97;2.08;;;29.60;99.90;;;;;;5037510;28;20315;-67
2022/06/27 10:07:58;;;;;;;2.00;1.90;;;29.80;99.90;;;;;;5041938;28;20220;-67
2022/06/27 10:10:28;;;;;;;2.10;1.90;;;29.40;99.90;;;;;;5039376;28;20210;-67
2022/06/27 10:12:58;;;;;;;3.67;1.98;;;28.80;99.90;;;;;;5043293;28;20201;-67
2022/06/27 10:15:30;;;;;;;2.90;1.90;;;28.40;99.90;;;;;;5044226;28;20612;-67
2022/06/27 10:18:02;;;;;;;3.40;2.20;;;27.90;99.90;;;;;;5042036;28;20203;-67
2022/06/27 10:20:37;;;;;;;2.33;2.08;;;27.50;99.90;;;;;;5043143;28;20202;-67
2022/06/27 10:23:04;;;;;;;2.60;2.15;;;27.30;99.90;;;;;;5043423;28;20485;-67
2022/06/27 10:25:31;;;;;;;5.30;2.50;;;27.00;99.90;;;;;;5040720;28;20223;-67
2022/06/27 10:28:13;;;;;;;3.00;2.28;;;26.60;99.90;;;;;;5045389;28;20191;-67
2022/06/27 10:30:45;;;;;;;2.90;2.20;;;26.30;99.90;;;;;;5040767;28;20206;-67
2022/06/27 10:36:10;;;;;;;6.05;3.08;;;26.40;99.90;;;;;;5040433;28;20222;-67
2022/06/27 10:38:45;;;;;;;5.13;3.47;;;26.00;99.90;;;;;;5040857;28;20198;-67
2022/06/27 10:41:32;;;;;;;5.32;3.05;;;25.70;99.90;;;;;;5041302;28;20199;-66
2022/06/27 10:44:03;;;;;;;4.28;2.92;;;25.50;99.90;;;;;;5033052;28;20273;-66
2022/06/27 10:46:30;;;;;;;6.72;3.28;;;25.30;99.90;;;;;;5043653;28;20526;-66
2022/06/27 10:48:58;;;;;;;6.38;2.92;;;25.40;99.90;;;;;;5042649;28;20238;-67
2022/06/27 10:51:34;;;;;;;4.13;3.20;;;25.50;99.90;;;;;;5042615;28;20651;-66
2022/06/27 10:54:04;;;;;;;4.38;3.45;;;25.60;99.90;;;;;;5043809;28;20187;-66
2022/06/27 10:56:51;;;;;;;5.38;3.05;;;25.80;99.90;;;;;;5040369;28;20248;-66
2022/06/27 10:59:25;;;;;;;4.15;2.70;;;26.00;99.90;;;;;;5042078;28;20529;-67
2022/06/27 11:01:58;;;;;;;4.22;2.78;;;25.90;99.90;;;;;;5044689;28;20209;-66
2022/06/27 11:04:25;;;;;;;3.55;2.75;;;25.70;99.90;;;;;;5042075;28;20212;-66
2022/06/27 11:06:59;;;;;;;3.30;2.42;;;25.50;99.90;;;;;;5040792;28;20716;-66
2022/06/27 11:09:35;;;;;;;4.30;2.38;;;25.30;99.90;;;;;;5042091;28;20694;-66
2022/06/27 11:12:03;;;;;;;5.18;4.22;;;25.20;99.90;;;;;;5039527;28;20202;-66
2022/06/27 11:14:30;;;;;;;5.68;3.80;;;25.30;99.90;;;;;;5042358;28;20219;-66
2022/06/27 11:16:57;;;;;;;3.13;2.80;;;24.90;99.90;;;;;;5039994;28;20196;-66
2022/06/27 11:22:21;;;;;;;3.22;2.60;;;25.30;99.90;;;;;;5034396;28;20195;-68
2022/06/27 11:24:49;;;;;;;5.07;2.85;;;25.50;99.90;;;;;;5040613;28;20222;-68
2022/06/27 11:27:16;;;;;;;3.58;3.08;;;25.30;99.90;;;;;;5039871;28;20223;-68
2022/06/27 11:32:34;;;;;;;4.53;3.40;;;25.00;99.90;;;;;;5042803;28;20198;-66
2022/06/27 11:35:02;;;;;;;3.65;3.30;;;25.10;99.90;;;;;;5041738;28;20654;-67
2022/06/27 11:37:30;;;;;;;4.93;3.10;;;25.50;99.90;;;;;;5041524;28;20214;-68
2022/06/27 11:40:03;;;;;;;2.65;2.45;;;25.80;99.90;;;;;;5037167;28;20206;-67
2022/06/27 11:42:31;;;;;;;3.55;2.72;;;26.00;99.90;;;;;;5040031;28;20294;-67
2022/06/27 11:45:08;;;;;;;2.80;2.30;;;26.30;99.90;;;;;;5038317;28;20715;-67
2022/06/27 11:47:41;;;;;;;2.50;2.30;;;25.90;99.90;;;;;;5035381;28;20202;-67
2022/06/27 11:50:13;;;;;;;2.35;2.15;;;25.80;99.90;;;;;;5038363;28;20275;-66
2022/06/27 11:52:39;;;;;;;2.53;2.30;;;25.60;99.90;;;;;;5040661;28;20234;-67
2022/06/27 11:55:10;;;;;;;2.92;2.20;;;25.80;99.90;;;;;;5038138;28;20277;-67
2022/06/27 11:57:37;;;;;;;3.00;2.20;;;25.40;99.90;;;;;;5034306;28;20198;-67
2022/06/27 12:00:06;;;;;;;4.70;2.50;;;25.10;99.90;;;;;;5038217;28;20192;-67
2022/06/27 12:02:40;;;;;;;2.40;2.20;;;24.90;99.90;;;;;;5034014;28;20191;-67
2022/06/27 12:05:22;;;;;;;2.47;2.28;;;25.00;99.90;;;;;;5037848;28;20238;-66
2022/06/27 12:07:53;;;;;;;4.55;2.50;;;24.50;99.90;;;;;;5037380;28;20195;-67
2022/06/27 12:10:40;;;;;;;2.67;2.42;;;24.30;99.90;;;;;;5048322;28;20186;-66
2022/06/27 12:13:16;;;;;;;2.35;2.15;;;24.20;99.90;;;;;;5042111;28;20191;-66
2022/06/27 12:15:45;;;;;;;4.70;2.83;;;24.30;99.90;;;;;;5038195;28;20541;-66
2022/06/27 12:18:12;;;;;;;3.05;2.22;;;24.50;99.90;;;;;;5045473;28;20203;-67
2022/06/27 12:20:41;;;;;;;2.60;2.40;;;24.90;99.90;;;;;;5038725;28;20199;-67
2022/06/27 12:23:08;;;;;;;3.47;2.00;;;25.20;99.90;;;;;;5037342;28;20200;-66
2022/06/27 12:25:35;;;;;;;2.30;2.10;;;25.40;99.90;;;;;;5039921;28;20215;-67
2022/06/27 12:28:08;;;;;;;3.10;2.22;;;24.80;99.90;;;;;;5041422;28;20195;-66
2022/06/27 12:30:35;;;;;;;2.35;2.08;;;25.00;99.90;;;;;;5038819;28;20191;-67
2022/06/27 12:33:02;;;;;;;2.63;2.40;;;25.30;99.90;;;;;;5032487;28;20196;-66
2022/06/27 12:35:29;;;;;;;3.13;1.98;;;25.60;99.90;;;;;;5038020;28;20215;-67
2022/06/27 12:38:00;;;;;;;3.85;2.55;;;25.70;99.90;;;;;;5039463;28;20202;-66
2022/06/27 12:40:27;;;;;;;3.22;2.20;;;26.20;99.90;;;;;;5039634;28;20195;-67
2022/06/27 12:43:02;;;;;;;3.30;2.05;;;26.50;99.90;;;;;;5036712;28;20191;-67
2022/06/27 12:45:28;;;;;;;3.13;1.98;;;26.60;99.90;;;;;;5038265;28;20223;-67
2022/06/27 12:47:58;;;;;;;2.08;1.88;;;26.80;99.90;;;;;;5036831;28;20236;-67
2022/06/27 12:50:24;;;;;;;2.17;1.80;;;27.00;99.90;;;;;;5036053;28;20203;-67
2022/06/27 12:52:51;;;;;;;2.33;2.10;;;26.60;99.90;;;;;;5035739;28;20191;-66
2022/06/27 12:55:18;;;;;;;2.80;2.10;;;26.10;99.90;;;;;;5034993;28;20212;-67
2022/06/27 12:57:45;;;;;;;2.22;2.00;;;26.00;99.90;;;;;;5041351;28;20215;-67
2022/06/27 13:00:12;;;;;;;2.33;2.10;;;26.00;99.90;;;;;;5035863;28;20218;-67